sensor_id;sensor_type;location;lat;lon;timestamp;temperature;humidity
12053;DHT22;6087;48.982;12.064;2022-12-17T00:02:08;0.40;84.70
12053;DHT22;6087;48.982;12.064;2022-12-17T00:04:52;0.40;84.90
12053;DHT22;6087;48.982;12.064;2022-12-17T00:07:38;0.40;84.20
12053;DHT22;6087;48.982;12.064;2022-12-17T00:10:22;0.40;83.50
12053;DHT22;6087;48.982;12.064;2022-12-17T00:13:18;0.30;82.40
12053;DHT22;6087;48.982;12.064;2022-12-17T00:16:04;0.30;81.50
12053;DHT22;6087;48.982;12.064;2022-12-17T00:18:48;0.30;81.90
12053;DHT22;6087;48.982;12.064;2022-12-17T00:21:32;0.30;81.30
12053;DHT22;6087;48.982;12.064;2022-12-17T00:24:18;0.30;81.40
12053;DHT22;6087;48.982;12.064;2022-12-17T00:27:02;0.30;80.70
12053;DHT22;6087;48.982;12.064;2022-12-17T00:29:47;0.30;81.20
12053;DHT22;6087;48.982;12.064;2022-12-17T00:32:31;0.30;81.00
12053;DHT22;6087;48.982;12.064;2022-12-17T00:35:15;0.30;80.50
12053;DHT22;6087;48.982;12.064;2022-12-17T00:37:59;0.30;80.10
12053;DHT22;6087;48.982;12.064;2022-12-17T00:40:49;0.20;79.50
12053;DHT22;6087;48.982;12.064;2022-12-17T00:43:34;0.20;80.00
12053;DHT22;6087;48.982;12.064;2022-12-17T00:46:18;0.20;80.10
12053;DHT22;6087;48.982;12.064;2022-12-17T00:49:02;0.10;80.40
12053;DHT22;6087;48.982;12.064;2022-12-17T00:51:46;0.20;80.30
12053;DHT22;6087;48.982;12.064;2022-12-17T00:54:30;0.20;80.30
12053;DHT22;6087;48.982;12.064;2022-12-17T00:57:16;0.20;80.20
12053;DHT22;6087;48.982;12.064;2022-12-17T01:00:00;0.20;80.10
12053;DHT22;6087;48.982;12.064;2022-12-17T01:02:44;0.10;79.80
12053;DHT22;6087;48.982;12.064;2022-12-17T01:05:29;0.10;80.00
12053;DHT22;6087;48.982;12.064;2022-12-17T01:08:14;0.10;80.70
12053;DHT22;6087;48.982;12.064;2022-12-17T01:10:58;0.10;80.50
12053;DHT22;6087;48.982;12.064;2022-12-17T01:13:44;0.10;80.70
12053;DHT22;6087;48.982;12.064;2022-12-17T01:16:29;0.10;80.70
12053;DHT22;6087;48.982;12.064;2022-12-17T01:19:14;0.10;80.50
12053;DHT22;6087;48.982;12.064;2022-12-17T01:21:58;0.10;78.70
12053;DHT22;6087;48.982;12.064;2022-12-17T01:24:42;0.10;80.00
12053;DHT22;6087;48.982;12.064;2022-12-17T01:27:26;0.00;79.10
12053;DHT22;6087;48.982;12.064;2022-12-17T01:30:11;0.00;80.10
12053;DHT22;6087;48.982;12.064;2022-12-17T01:33:00;0.00;80.10
12053;DHT22;6087;48.982;12.064;2022-12-17T01:35:44;0.00;80.30
12053;DHT22;6087;48.982;12.064;2022-12-17T01:38:28;0.00;80.50
12053;DHT22;6087;48.982;12.064;2022-12-17T01:41:12;0.00;80.20
12053;DHT22;6087;48.982;12.064;2022-12-17T01:43:57;-0.10;79.50
12053;DHT22;6087;48.982;12.064;2022-12-17T01:46:48;-0.10;78.80
12053;DHT22;6087;48.982;12.064;2022-12-17T01:49:33;-0.10;79.90
12053;DHT22;6087;48.982;12.064;2022-12-17T01:52:19;-0.20;79.70
12053;DHT22;6087;48.982;12.064;2022-12-17T01:55:04;-0.20;79.50
12053;DHT22;6087;48.982;12.064;2022-12-17T01:57:50;-0.20;80.20
12053;DHT22;6087;48.982;12.064;2022-12-17T02:00:34;-0.20;79.50
12053;DHT22;6087;48.982;12.064;2022-12-17T02:03:19;-0.20;80.30
12053;DHT22;6087;48.982;12.064;2022-12-17T02:06:09;-0.30;80.00
12053;DHT22;6087;48.982;12.064;2022-12-17T02:09:12;-0.40;79.90
12053;DHT22;6087;48.982;12.064;2022-12-17T02:12:06;-0.40;80.60
12053;DHT22;6087;48.982;12.064;2022-12-17T02:14:56;-0.40;81.00
12053;DHT22;6087;48.982;12.064;2022-12-17T02:17:47;-0.40;80.30
12053;DHT22;6087;48.982;12.064;2022-12-17T02:20:38;-0.40;80.20
12053;DHT22;6087;48.982;12.064;2022-12-17T02:23:38;-0.40;79.30
12053;DHT22;6087;48.982;12.064;2022-12-17T02:26:34;-0.40;79.80
12053;DHT22;6087;48.982;12.064;2022-12-17T02:29:20;-0.40;79.40
12053;DHT22;6087;48.982;12.064;2022-12-17T02:32:06;-0.40;79.50
12053;DHT22;6087;48.982;12.064;2022-12-17T02:34:52;-0.40;79.40
12053;DHT22;6087;48.982;12.064;2022-12-17T02:37:51;-0.40;79.70
12053;DHT22;6087;48.982;12.064;2022-12-17T02:40:36;-0.30;79.90
12053;DHT22;6087;48.982;12.064;2022-12-17T02:43:24;-0.30;80.00
12053;DHT22;6087;48.982;12.064;2022-12-17T02:46:09;-0.30;79.80
12053;DHT22;6087;48.982;12.064;2022-12-17T02:48:53;-0.30;79.00
12053;DHT22;6087;48.982;12.064;2022-12-17T02:51:38;-0.30;79.30
12053;DHT22;6087;48.982;12.064;2022-12-17T02:54:27;-0.30;79.00
12053;DHT22;6087;48.982;12.064;2022-12-17T02:57:11;-0.20;79.20
12053;DHT22;6087;48.982;12.064;2022-12-17T02:59:57;-0.30;78.80
12053;DHT22;6087;48.982;12.064;2022-12-17T03:02:41;-0.30;79.10
12053;DHT22;6087;48.982;12.064;2022-12-17T03:05:25;-0.30;78.80
12053;DHT22;6087;48.982;12.064;2022-12-17T03:08:09;-0.30;78.90
12053;DHT22;6087;48.982;12.064;2022-12-17T03:10:54;-0.30;78.40
12053;DHT22;6087;48.982;12.064;2022-12-17T03:13:38;-0.30;78.50
12053;DHT22;6087;48.982;12.064;2022-12-17T03:16:23;-0.30;78.20
12053;DHT22;6087;48.982;12.064;2022-12-17T03:19:09;-0.30;78.70
12053;DHT22;6087;48.982;12.064;2022-12-17T03:21:53;-0.30;78.30
12053;DHT22;6087;48.982;12.064;2022-12-17T03:24:38;-0.30;78.40
12053;DHT22;6087;48.982;12.064;2022-12-17T03:27:22;-0.40;78.80
12053;DHT22;6087;48.982;12.064;2022-12-17T03:30:07;-0.40;77.30
12053;DHT22;6087;48.982;12.064;2022-12-17T03:32:53;-0.40;77.40
12053;DHT22;6087;48.982;12.064;2022-12-17T03:35:37;-0.50;77.60
12053;DHT22;6087;48.982;12.064;2022-12-17T03:38:22;-0.40;77.50
12053;DHT22;6087;48.982;12.064;2022-12-17T03:41:20;-0.40;77.40
12053;DHT22;6087;48.982;12.064;2022-12-17T03:44:04;-0.50;77.20
12053;DHT22;6087;48.982;12.064;2022-12-17T03:46:49;-0.50;77.90
12053;DHT22;6087;48.982;12.064;2022-12-17T03:49:31;-0.60;76.50
12053;DHT22;6087;48.982;12.064;2022-12-17T03:52:15;-0.60;77.90
12053;DHT22;6087;48.982;12.064;2022-12-17T03:54:59;-0.60;77.50
12053;DHT22;6087;48.982;12.064;2022-12-17T03:57:43;-0.60;77.40
12053;DHT22;6087;48.982;12.064;2022-12-17T04:00:27;-0.50;77.30
12053;DHT22;6087;48.982;12.064;2022-12-17T04:03:11;-0.50;77.70
12053;DHT22;6087;48.982;12.064;2022-12-17T04:05:57;-0.60;76.80
12053;DHT22;6087;48.982;12.064;2022-12-17T04:08:41;-0.60;77.00
12053;DHT22;6087;48.982;12.064;2022-12-17T04:11:26;-0.50;77.20
12053;DHT22;6087;48.982;12.064;2022-12-17T04:14:10;-0.50;77.30
12053;DHT22;6087;48.982;12.064;2022-12-17T04:16:54;-0.60;76.80
12053;DHT22;6087;48.982;12.064;2022-12-17T04:19:38;-0.60;76.90
12053;DHT22;6087;48.982;12.064;2022-12-17T04:22:26;-0.60;76.30
12053;DHT22;6087;48.982;12.064;2022-12-17T04:25:10;-0.60;76.30
12053;DHT22;6087;48.982;12.064;2022-12-17T04:27:54;-0.60;76.20
12053;DHT22;6087;48.982;12.064;2022-12-17T04:30:38;-0.60;75.70
12053;DHT22;6087;48.982;12.064;2022-12-17T04:33:22;-0.50;75.30
12053;DHT22;6087;48.982;12.064;2022-12-17T04:36:07;-0.60;75.70
12053;DHT22;6087;48.982;12.064;2022-12-17T04:38:53;-0.50;75.20
12053;DHT22;6087;48.982;12.064;2022-12-17T04:41:37;-0.60;75.20
12053;DHT22;6087;48.982;12.064;2022-12-17T04:44:21;-0.60;74.30
12053;DHT22;6087;48.982;12.064;2022-12-17T04:47:05;-0.60;74.50
12053;DHT22;6087;48.982;12.064;2022-12-17T04:49:49;-0.60;75.00
12053;DHT22;6087;48.982;12.064;2022-12-17T04:52:33;-0.60;75.50
12053;DHT22;6087;48.982;12.064;2022-12-17T04:55:19;-0.60;75.70
12053;DHT22;6087;48.982;12.064;2022-12-17T04:58:04;-0.60;75.10
12053;DHT22;6087;48.982;12.064;2022-12-17T05:00:50;-0.60;74.90
12053;DHT22;6087;48.982;12.064;2022-12-17T05:03:34;-0.70;75.00
12053;DHT22;6087;48.982;12.064;2022-12-17T05:06:19;-0.70;75.10
12053;DHT22;6087;48.982;12.064;2022-12-17T05:09:03;-0.60;74.90
12053;DHT22;6087;48.982;12.064;2022-12-17T05:11:49;-0.60;75.00
12053;DHT22;6087;48.982;12.064;2022-12-17T05:14:33;-0.70;75.00
12053;DHT22;6087;48.982;12.064;2022-12-17T05:17:17;-0.70;75.00
12053;DHT22;6087;48.982;12.064;2022-12-17T05:20:02;-0.70;75.00
12053;DHT22;6087;48.982;12.064;2022-12-17T05:22:46;-0.70;75.60
12053;DHT22;6087;48.982;12.064;2022-12-17T05:25:30;-0.70;76.00
12053;DHT22;6087;48.982;12.064;2022-12-17T05:28:16;-0.60;76.10
12053;DHT22;6087;48.982;12.064;2022-12-17T05:31:00;-0.60;76.30
12053;DHT22;6087;48.982;12.064;2022-12-17T05:33:45;-0.60;76.10
12053;DHT22;6087;48.982;12.064;2022-12-17T05:36:34;-0.60;75.30
12053;DHT22;6087;48.982;12.064;2022-12-17T05:39:18;-0.70;75.10
12053;DHT22;6087;48.982;12.064;2022-12-17T05:42:03;-0.70;75.10
12053;DHT22;6087;48.982;12.064;2022-12-17T05:44:48;-0.60;74.40
12053;DHT22;6087;48.982;12.064;2022-12-17T05:47:33;-0.70;75.10
12053;DHT22;6087;48.982;12.064;2022-12-17T05:50:22;-0.60;74.70
12053;DHT22;6087;48.982;12.064;2022-12-17T05:53:07;-0.70;75.30
12053;DHT22;6087;48.982;12.064;2022-12-17T05:55:52;-0.70;75.30
12053;DHT22;6087;48.982;12.064;2022-12-17T05:58:36;-0.70;74.80
12053;DHT22;6087;48.982;12.064;2022-12-17T06:01:23;-0.70;74.70
12053;DHT22;6087;48.982;12.064;2022-12-17T06:04:08;-0.70;75.10
12053;DHT22;6087;48.982;12.064;2022-12-17T06:06:52;-0.80;75.00
12053;DHT22;6087;48.982;12.064;2022-12-17T06:09:36;-0.70;75.40
12053;DHT22;6087;48.982;12.064;2022-12-17T06:12:20;-0.80;75.50
12053;DHT22;6087;48.982;12.064;2022-12-17T06:15:05;-0.80;75.90
12053;DHT22;6087;48.982;12.064;2022-12-17T06:17:55;-0.80;76.20
12053;DHT22;6087;48.982;12.064;2022-12-17T06:20:39;-1.00;77.80
12053;DHT22;6087;48.982;12.064;2022-12-17T06:23:24;-0.90;77.30
12053;DHT22;6087;48.982;12.064;2022-12-17T06:26:08;-0.90;78.10
12053;DHT22;6087;48.982;12.064;2022-12-17T06:29:01;-1.00;78.40
12053;DHT22;6087;48.982;12.064;2022-12-17T06:31:45;-0.90;77.70
12053;DHT22;6087;48.982;12.064;2022-12-17T06:34:31;-1.00;78.40
12053;DHT22;6087;48.982;12.064;2022-12-17T06:37:15;-1.10;79.60
12053;DHT22;6087;48.982;12.064;2022-12-17T06:39:59;-1.00;79.20
12053;DHT22;6087;48.982;12.064;2022-12-17T06:42:51;-1.10;78.60
12053;DHT22;6087;48.982;12.064;2022-12-17T06:45:35;-1.10;78.50
12053;DHT22;6087;48.982;12.064;2022-12-17T06:48:19;-1.20;79.90
12053;DHT22;6087;48.982;12.064;2022-12-17T06:51:05;-1.20;79.90
12053;DHT22;6087;48.982;12.064;2022-12-17T06:53:49;-1.20;79.40
12053;DHT22;6087;48.982;12.064;2022-12-17T06:56:34;-1.20;79.30
12053;DHT22;6087;48.982;12.064;2022-12-17T06:59:23;-1.20;78.10
12053;DHT22;6087;48.982;12.064;2022-12-17T07:02:08;-1.20;79.10
12053;DHT22;6087;48.982;12.064;2022-12-17T07:04:53;-1.20;78.70
12053;DHT22;6087;48.982;12.064;2022-12-17T07:07:39;-1.20;78.30
12053;DHT22;6087;48.982;12.064;2022-12-17T07:10:31;-1.20;77.00
12053;DHT22;6087;48.982;12.064;2022-12-17T07:13:16;-1.30;78.70
12053;DHT22;6087;48.982;12.064;2022-12-17T07:16:00;-1.50;79.50
12053;DHT22;6087;48.982;12.064;2022-12-17T07:18:44;-1.50;80.00
12053;DHT22;6087;48.982;12.064;2022-12-17T07:21:28;-1.60;82.20
12053;DHT22;6087;48.982;12.064;2022-12-17T07:24:14;-1.70;81.40
12053;DHT22;6087;48.982;12.064;2022-12-17T07:26:58;-1.70;82.20
12053;DHT22;6087;48.982;12.064;2022-12-17T07:29:42;-1.70;83.20
12053;DHT22;6087;48.982;12.064;2022-12-17T07:32:26;-1.70;84.90
12053;DHT22;6087;48.982;12.064;2022-12-17T07:35:10;-1.70;84.00
12053;DHT22;6087;48.982;12.064;2022-12-17T07:37:58;-1.70;82.30
12053;DHT22;6087;48.982;12.064;2022-12-17T07:40:45;-1.60;82.00
12053;DHT22;6087;48.982;12.064;2022-12-17T07:43:29;-1.80;83.10
12053;DHT22;6087;48.982;12.064;2022-12-17T07:46:14;-1.90;83.20
12053;DHT22;6087;48.982;12.064;2022-12-17T07:48:58;-2.00;86.10
12053;DHT22;6087;48.982;12.064;2022-12-17T07:51:42;-2.00;86.70
12053;DHT22;6087;48.982;12.064;2022-12-17T07:54:26;-2.00;87.10
12053;DHT22;6087;48.982;12.064;2022-12-17T07:57:12;-1.90;85.90
12053;DHT22;6087;48.982;12.064;2022-12-17T07:59:56;-1.90;84.50
12053;DHT22;6087;48.982;12.064;2022-12-17T08:02:41;-1.90;85.60
12053;DHT22;6087;48.982;12.064;2022-12-17T08:05:25;-1.90;84.50
12053;DHT22;6087;48.982;12.064;2022-12-17T08:08:10;-2.00;84.00
12053;DHT22;6087;48.982;12.064;2022-12-17T08:10:55;-2.10;85.70
12053;DHT22;6087;48.982;12.064;2022-12-17T08:13:41;-2.10;85.30
12053;DHT22;6087;48.982;12.064;2022-12-17T08:16:25;-2.10;84.80
12053;DHT22;6087;48.982;12.064;2022-12-17T08:19:10;-2.10;85.20
12053;DHT22;6087;48.982;12.064;2022-12-17T08:21:53;-2.20;85.20
12053;DHT22;6087;48.982;12.064;2022-12-17T08:24:37;-2.30;88.00
12053;DHT22;6087;48.982;12.064;2022-12-17T08:27:21;-2.30;88.40
12053;DHT22;6087;48.982;12.064;2022-12-17T08:30:08;-2.20;86.70
12053;DHT22;6087;48.982;12.064;2022-12-17T08:32:52;-2.30;87.60
12053;DHT22;6087;48.982;12.064;2022-12-17T08:35:51;-2.10;87.20
12053;DHT22;6087;48.982;12.064;2022-12-17T08:38:50;-2.00;86.40
12053;DHT22;6087;48.982;12.064;2022-12-17T08:41:35;-2.00;83.40
12053;DHT22;6087;48.982;12.064;2022-12-17T08:44:19;-1.90;84.70
12053;DHT22;6087;48.982;12.064;2022-12-17T08:47:05;-1.90;84.00
12053;DHT22;6087;48.982;12.064;2022-12-17T08:49:49;-1.80;82.40
12053;DHT22;6087;48.982;12.064;2022-12-17T08:52:33;-1.90;81.60
12053;DHT22;6087;48.982;12.064;2022-12-17T08:55:17;-1.80;81.30
12053;DHT22;6087;48.982;12.064;2022-12-17T08:58:02;-1.70;81.30
12053;DHT22;6087;48.982;12.064;2022-12-17T09:00:58;-1.70;80.40
12053;DHT22;6087;48.982;12.064;2022-12-17T09:03:44;-1.70;79.70
12053;DHT22;6087;48.982;12.064;2022-12-17T09:06:29;-1.60;80.30
12053;DHT22;6087;48.982;12.064;2022-12-17T09:09:13;-1.60;79.70
12053;DHT22;6087;48.982;12.064;2022-12-17T09:11:57;-1.50;79.40
12053;DHT22;6087;48.982;12.064;2022-12-17T09:14:41;-1.40;79.50
12053;DHT22;6087;48.982;12.064;2022-12-17T09:17:25;-1.20;77.00
12053;DHT22;6087;48.982;12.064;2022-12-17T09:20:11;-1.20;76.40
12053;DHT22;6087;48.982;12.064;2022-12-17T09:22:55;-0.90;75.00
12053;DHT22;6087;48.982;12.064;2022-12-17T09:25:39;-1.00;75.10
12053;DHT22;6087;48.982;12.064;2022-12-17T09:28:23;-1.10;74.90
12053;DHT22;6087;48.982;12.064;2022-12-17T09:31:07;-1.10;75.70
12053;DHT22;6087;48.982;12.064;2022-12-17T09:33:52;-1.10;75.30
12053;DHT22;6087;48.982;12.064;2022-12-17T09:36:38;-1.10;75.80
12053;DHT22;6087;48.982;12.064;2022-12-17T09:39:24;-1.10;76.00
12053;DHT22;6087;48.982;12.064;2022-12-17T09:42:16;-1.10;75.50
12053;DHT22;6087;48.982;12.064;2022-12-17T09:45:06;-1.20;76.00
12053;DHT22;6087;48.982;12.064;2022-12-17T09:47:58;-1.10;75.60
12053;DHT22;6087;48.982;12.064;2022-12-17T09:50:49;-1.10;76.10
12053;DHT22;6087;48.982;12.064;2022-12-17T09:53:36;-1.00;76.30
12053;DHT22;6087;48.982;12.064;2022-12-17T09:56:22;-1.00;75.20
12053;DHT22;6087;48.982;12.064;2022-12-17T09:59:24;-1.00;74.20
12053;DHT22;6087;48.982;12.064;2022-12-17T10:02:14;-1.00;75.70
12053;DHT22;6087;48.982;12.064;2022-12-17T10:05:00;-1.00;76.10
12053;DHT22;6087;48.982;12.064;2022-12-17T10:07:46;-0.90;75.80
12053;DHT22;6087;48.982;12.064;2022-12-17T10:10:33;-0.80;75.90
12053;DHT22;6087;48.982;12.064;2022-12-17T10:13:20;-0.80;75.60
12053;DHT22;6087;48.982;12.064;2022-12-17T10:16:20;-0.70;75.70
12053;DHT22;6087;48.982;12.064;2022-12-17T10:19:12;-0.70;75.40
12053;DHT22;6087;48.982;12.064;2022-12-17T10:22:06;-0.60;75.20
12053;DHT22;6087;48.982;12.064;2022-12-17T10:24:50;-0.60;74.70
12053;DHT22;6087;48.982;12.064;2022-12-17T10:27:36;-0.60;74.60
12053;DHT22;6087;48.982;12.064;2022-12-17T10:30:20;-0.50;75.20
12053;DHT22;6087;48.982;12.064;2022-12-17T10:33:06;-0.50;75.00
12053;DHT22;6087;48.982;12.064;2022-12-17T10:35:50;-0.50;74.60
12053;DHT22;6087;48.982;12.064;2022-12-17T10:38:35;-0.50;74.80
12053;DHT22;6087;48.982;12.064;2022-12-17T10:41:22;-0.50;74.40
12053;DHT22;6087;48.982;12.064;2022-12-17T10:44:22;-0.40;74.50
12053;DHT22;6087;48.982;12.064;2022-12-17T10:47:10;-0.40;73.90
12053;DHT22;6087;48.982;12.064;2022-12-17T10:49:56;-0.30;74.30
12053;DHT22;6087;48.982;12.064;2022-12-17T10:52:43;-0.30;74.10
12053;DHT22;6087;48.982;12.064;2022-12-17T10:55:29;-0.20;74.50
12053;DHT22;6087;48.982;12.064;2022-12-17T10:58:15;0.00;74.00
12053;DHT22;6087;48.982;12.064;2022-12-17T11:01:04;0.10;73.30
12053;DHT22;6087;48.982;12.064;2022-12-17T11:03:51;0.00;73.10
12053;DHT22;6087;48.982;12.064;2022-12-17T11:06:38;0.10;73.10
12053;DHT22;6087;48.982;12.064;2022-12-17T11:09:36;0.10;73.20
12053;DHT22;6087;48.982;12.064;2022-12-17T11:12:24;0.10;73.70
12053;DHT22;6087;48.982;12.064;2022-12-17T11:15:16;0.20;72.90
12053;DHT22;6087;48.982;12.064;2022-12-17T11:18:04;0.20;73.80
12053;DHT22;6087;48.982;12.064;2022-12-17T11:20:54;0.30;73.20
12053;DHT22;6087;48.982;12.064;2022-12-17T11:23:44;0.40;72.70
12053;DHT22;6087;48.982;12.064;2022-12-17T11:26:32;0.40;73.30
12053;DHT22;6087;48.982;12.064;2022-12-17T11:29:18;0.40;72.80
12053;DHT22;6087;48.982;12.064;2022-12-17T11:32:27;0.50;72.80
12053;DHT22;6087;48.982;12.064;2022-12-17T11:35:21;0.60;71.80
12053;DHT22;6087;48.982;12.064;2022-12-17T11:38:15;0.70;72.10
12053;DHT22;6087;48.982;12.064;2022-12-17T11:41:08;0.70;72.10
12053;DHT22;6087;48.982;12.064;2022-12-17T11:44:03;0.80;71.70
12053;DHT22;6087;48.982;12.064;2022-12-17T11:46:58;0.80;72.50
12053;DHT22;6087;48.982;12.064;2022-12-17T11:49:51;0.90;71.20
12053;DHT22;6087;48.982;12.064;2022-12-17T11:52:41;1.00;70.90
12053;DHT22;6087;48.982;12.064;2022-12-17T11:55:36;1.10;70.70
12053;DHT22;6087;48.982;12.064;2022-12-17T11:58:29;1.20;71.00
12053;DHT22;6087;48.982;12.064;2022-12-17T12:01:21;1.20;71.00
12053;DHT22;6087;48.982;12.064;2022-12-17T12:04:20;1.40;70.30
12053;DHT22;6087;48.982;12.064;2022-12-17T12:07:14;1.60;69.00
12053;DHT22;6087;48.982;12.064;2022-12-17T12:10:06;1.70;69.00
12053;DHT22;6087;48.982;12.064;2022-12-17T12:13:01;1.90;69.00
12053;DHT22;6087;48.982;12.064;2022-12-17T12:15:56;2.10;68.00
12053;DHT22;6087;48.982;12.064;2022-12-17T12:18:49;2.40;67.00
12053;DHT22;6087;48.982;12.064;2022-12-17T12:21:42;2.50;65.80
12053;DHT22;6087;48.982;12.064;2022-12-17T12:24:59;2.60;65.40
12053;DHT22;6087;48.982;12.064;2022-12-17T12:27:54;2.70;64.70
12053;DHT22;6087;48.982;12.064;2022-12-17T12:30:51;2.80;64.80
12053;DHT22;6087;48.982;12.064;2022-12-17T12:33:44;2.70;64.40
12053;DHT22;6087;48.982;12.064;2022-12-17T12:36:31;2.70;63.60
12053;DHT22;6087;48.982;12.064;2022-12-17T12:39:19;2.70;63.40
12053;DHT22;6087;48.982;12.064;2022-12-17T12:42:08;2.90;63.70
12053;DHT22;6087;48.982;12.064;2022-12-17T12:45:03;3.00;63.50
12053;DHT22;6087;48.982;12.064;2022-12-17T12:48:06;3.10;63.00
12053;DHT22;6087;48.982;12.064;2022-12-17T12:51:01;3.20;63.40
12053;DHT22;6087;48.982;12.064;2022-12-17T12:53:55;3.30;63.30
12053;DHT22;6087;48.982;12.064;2022-12-17T12:56:40;4.00;63.20
12053;DHT22;6087;48.982;12.064;2022-12-17T12:59:26;5.20;59.90
12053;DHT22;6087;48.982;12.064;2022-12-17T13:02:24;5.50;55.00
12053;DHT22;6087;48.982;12.064;2022-12-17T13:05:36;6.00;54.40
12053;DHT22;6087;48.982;12.064;2022-12-17T13:08:17;7.80;47.00
12053;DHT22;6087;48.982;12.064;2022-12-17T13:10:44;9.30;40.70
12053;DHT22;6087;48.982;12.064;2022-12-17T13:13:21;10.70;32.40
12053;DHT22;6087;48.982;12.064;2022-12-17T13:15:52;11.80;24.20
12053;DHT22;6087;48.982;12.064;2022-12-17T13:18:23;12.80;17.80
12053;DHT22;6087;48.982;12.064;2022-12-17T13:20:58;13.70;8.80
12053;DHT22;6087;48.982;12.064;2022-12-17T13:23:29;14.50;2.20
12053;DHT22;6087;48.982;12.064;2022-12-17T13:26:19;15.10;1.00
12053;DHT22;6087;48.982;12.064;2022-12-17T13:29:01;15.80;1.00
12053;DHT22;6087;48.982;12.064;2022-12-17T13:31:31;16.00;1.00
12053;DHT22;6087;48.982;12.064;2022-12-17T13:34:13;16.40;1.00
12053;DHT22;6087;48.982;12.064;2022-12-17T13:36:48;16.70;1.00
12053;DHT22;6087;48.982;12.064;2022-12-17T13:39:31;17.00;1.00
12053;DHT22;6087;48.982;12.064;2022-12-17T13:42:00;17.30;1.00
12053;DHT22;6087;48.982;12.064;2022-12-17T13:44:32;17.50;1.00
12053;DHT22;6087;48.982;12.064;2022-12-17T13:47:01;17.40;1.00
12053;DHT22;6087;48.982;12.064;2022-12-17T13:49:30;17.40;1.00
12053;DHT22;6087;48.982;12.064;2022-12-17T13:52:01;17.50;1.00
12053;DHT22;6087;48.982;12.064;2022-12-17T13:54:28;17.50;1.00
12053;DHT22;6087;48.982;12.064;2022-12-17T13:57:06;17.50;1.00
12053;DHT22;6087;48.982;12.064;2022-12-17T13:59:33;17.50;1.00
12053;DHT22;6087;48.982;12.064;2022-12-17T14:02:00;17.30;1.00
12053;DHT22;6087;48.982;12.064;2022-12-17T14:04:29;17.20;1.00
12053;DHT22;6087;48.982;12.064;2022-12-17T14:06:58;17.20;1.00
12053;DHT22;6087;48.982;12.064;2022-12-17T14:09:31;17.10;1.00
12053;DHT22;6087;48.982;12.064;2022-12-17T14:12:02;16.60;1.00
12053;DHT22;6087;48.982;12.064;2022-12-17T14:14:51;15.50;1.00
12053;DHT22;6087;48.982;12.064;2022-12-17T14:17:22;14.30;1.00
12053;DHT22;6087;48.982;12.064;2022-12-17T14:19:57;13.20;1.00
12053;DHT22;6087;48.982;12.064;2022-12-17T14:22:31;12.20;1.00
12053;DHT22;6087;48.982;12.064;2022-12-17T14:24:59;11.40;1.00
12053;DHT22;6087;48.982;12.064;2022-12-17T14:27:31;10.60;1.00
12053;DHT22;6087;48.982;12.064;2022-12-17T14:29:59;9.90;1.00
12053;DHT22;6087;48.982;12.064;2022-12-17T14:32:31;9.30;1.00
12053;DHT22;6087;48.982;12.064;2022-12-17T14:35:01;8.70;1.00
12053;DHT22;6087;48.982;12.064;2022-12-17T14:37:29;8.30;1.00
12053;DHT22;6087;48.982;12.064;2022-12-17T14:40:00;7.80;1.00
12053;DHT22;6087;48.982;12.064;2022-12-17T14:42:28;7.50;1.00
12053;DHT22;6087;48.982;12.064;2022-12-17T14:44:58;7.10;1.00
12053;DHT22;6087;48.982;12.064;2022-12-17T14:47:27;6.70;1.00
12053;DHT22;6087;48.982;12.064;2022-12-17T14:50:03;6.50;1.00
12053;DHT22;6087;48.982;12.064;2022-12-17T14:52:38;6.20;1.00
12053;DHT22;6087;48.982;12.064;2022-12-17T14:55:22;5.90;1.00
12053;DHT22;6087;48.982;12.064;2022-12-17T14:57:50;5.70;1.00
12053;DHT22;6087;48.982;12.064;2022-12-17T15:00:17;5.50;1.00
12053;DHT22;6087;48.982;12.064;2022-12-17T15:02:49;5.30;1.00
12053;DHT22;6087;48.982;12.064;2022-12-17T15:05:18;5.10;1.00
12053;DHT22;6087;48.982;12.064;2022-12-17T15:07:45;4.80;1.00
12053;DHT22;6087;48.982;12.064;2022-12-17T15:10:15;4.60;1.00
12053;DHT22;6087;48.982;12.064;2022-12-17T15:12:44;4.40;1.00
12053;DHT22;6087;48.982;12.064;2022-12-17T15:15:13;4.30;1.00
12053;DHT22;6087;48.982;12.064;2022-12-17T15:17:41;4.10;1.00
12053;DHT22;6087;48.982;12.064;2022-12-17T15:20:15;4.00;1.00
12053;DHT22;6087;48.982;12.064;2022-12-17T15:22:44;3.80;1.00
12053;DHT22;6087;48.982;12.064;2022-12-17T15:25:11;3.70;1.00
12053;DHT22;6087;48.982;12.064;2022-12-17T15:27:39;3.60;1.00
12053;DHT22;6087;48.982;12.064;2022-12-17T15:30:08;3.50;1.00
12053;DHT22;6087;48.982;12.064;2022-12-17T15:32:38;3.40;1.10
12053;DHT22;6087;48.982;12.064;2022-12-17T15:35:06;3.20;2.60
12053;DHT22;6087;48.982;12.064;2022-12-17T15:37:33;3.10;4.00
12053;DHT22;6087;48.982;12.064;2022-12-17T15:40:01;3.00;5.20
12053;DHT22;6087;48.982;12.064;2022-12-17T15:42:28;2.90;6.40
12053;DHT22;6087;48.982;12.064;2022-12-17T15:45:12;2.90;7.80
12053;DHT22;6087;48.982;12.064;2022-12-17T15:47:39;2.80;8.90
12053;DHT22;6087;48.982;12.064;2022-12-17T15:50:07;2.70;10.30
12053;DHT22;6087;48.982;12.064;2022-12-17T15:52:34;2.60;11.40
12053;DHT22;6087;48.982;12.064;2022-12-17T15:55:02;2.50;12.80
12053;DHT22;6087;48.982;12.064;2022-12-17T15:57:29;2.40;14.10
12053;DHT22;6087;48.982;12.064;2022-12-17T15:59:56;2.40;15.40
12053;DHT22;6087;48.982;12.064;2022-12-17T16:02:23;2.30;16.80
12053;DHT22;6087;48.982;12.064;2022-12-17T16:04:50;2.20;18.10
12053;DHT22;6087;48.982;12.064;2022-12-17T16:07:17;2.20;19.40
12053;DHT22;6087;48.982;12.064;2022-12-17T16:09:44;2.10;20.50
12053;DHT22;6087;48.982;12.064;2022-12-17T16:12:12;2.10;21.60
12053;DHT22;6087;48.982;12.064;2022-12-17T16:14:39;2.00;22.50
12053;DHT22;6087;48.982;12.064;2022-12-17T16:17:06;1.90;23.60
12053;DHT22;6087;48.982;12.064;2022-12-17T16:19:33;1.90;24.80
12053;DHT22;6087;48.982;12.064;2022-12-17T16:22:00;1.80;26.30
12053;DHT22;6087;48.982;12.064;2022-12-17T16:24:27;1.80;27.40
12053;DHT22;6087;48.982;12.064;2022-12-17T16:26:54;1.70;28.50
12053;DHT22;6087;48.982;12.064;2022-12-17T16:29:22;1.60;29.60
12053;DHT22;6087;48.982;12.064;2022-12-17T16:31:49;1.60;30.20
12053;DHT22;6087;48.982;12.064;2022-12-17T16:34:16;1.50;32.00
12053;DHT22;6087;48.982;12.064;2022-12-17T16:36:43;1.40;33.80
12053;DHT22;6087;48.982;12.064;2022-12-17T16:39:14;1.30;34.30
12053;DHT22;6087;48.982;12.064;2022-12-17T16:41:41;1.30;35.40
12053;DHT22;6087;48.982;12.064;2022-12-17T16:44:08;1.30;36.50
12053;DHT22;6087;48.982;12.064;2022-12-17T16:46:38;1.30;37.20
12053;DHT22;6087;48.982;12.064;2022-12-17T16:49:07;1.20;38.20
12053;DHT22;6087;48.982;12.064;2022-12-17T16:51:34;1.20;39.30
12053;DHT22;6087;48.982;12.064;2022-12-17T16:54:04;1.00;41.40
12053;DHT22;6087;48.982;12.064;2022-12-17T16:56:31;0.90;43.10
12053;DHT22;6087;48.982;12.064;2022-12-17T16:59:00;0.80;44.70
12053;DHT22;6087;48.982;12.064;2022-12-17T17:01:28;0.80;45.60
12053;DHT22;6087;48.982;12.064;2022-12-17T17:03:56;0.80;46.70
12053;DHT22;6087;48.982;12.064;2022-12-17T17:06:23;0.70;47.60
12053;DHT22;6087;48.982;12.064;2022-12-17T17:08:51;0.80;47.40
12053;DHT22;6087;48.982;12.064;2022-12-17T17:11:20;0.80;47.50
12053;DHT22;6087;48.982;12.064;2022-12-17T17:13:48;0.80;47.80
12053;DHT22;6087;48.982;12.064;2022-12-17T17:16:16;0.80;47.50
12053;DHT22;6087;48.982;12.064;2022-12-17T17:18:44;0.80;47.70